Time;durP1;ratioP1;P1;durP2;ratioP2;P2;SDS_P1;SDS_P2;PMS_P1;PMS_P2;Temp;Humidity;BMP_temperature;BMP_pressure;BME280_temperature;BME280_humidity;BME280_pressure;Samples;Min_cycle;Max_cycle;Signal;HPM_P1;HPM_P2
2023/05/31 00:00:43;;;;;;;6.20;3.25;;;10.00;99.90;;;;;;4200169;28;20445;-85
2023/05/31 00:02:43;;;;;;;6.15;2.33;;;10.00;99.90;;;;;;4201668;28;20041;-86
2023/05/31 00:04:44;;;;;;;5.75;2.28;;;10.00;99.90;;;;;;4183904;28;20052;-85
2023/05/31 00:06:45;;;;;;;4.82;2.20;;;10.00;99.90;;;;;;4182369;28;20414;-86
2023/05/31 00:08:46;;;;;;;6.75;2.58;;;10.00;99.90;;;;;;4182192;28;20140;-85
2023/05/31 00:10:46;;;;;;;6.57;2.65;;;10.00;99.90;;;;;;4199704;28;20048;-86
2023/05/31 00:12:47;;;;;;;6.13;3.35;;;10.10;99.90;;;;;;4182796;28;20413;-86
2023/05/31 00:14:48;;;;;;;5.32;2.40;;;9.90;99.90;;;;;;4182211;28;20072;-86
2023/05/31 00:16:49;;;;;;;5.07;2.33;;;9.90;99.90;;;;;;4182864;28;20044;-85
2023/05/31 00:18:51;;;;;;;4.47;2.40;;;9.90;99.90;;;;;;4183007;28;20191;-85
2023/05/31 00:20:51;;;;;;;5.63;2.63;;;9.80;99.90;;;;;;4182049;28;20052;-86
2023/05/31 00:22:52;;;;;;;7.70;2.25;;;9.90;99.90;;;;;;4182241;28;20509;-85
2023/05/31 00:24:55;;;;;;;5.65;2.97;;;9.60;99.90;;;;;;4199394;28;20427;-85
2023/05/31 00:26:55;;;;;;;7.43;2.60;;;9.80;99.90;;;;;;4200901;28;20053;-86
2023/05/31 00:28:56;;;;;;;5.57;2.85;;;9.90;99.90;;;;;;4199845;28;20048;-86
2023/05/31 00:30:57;;;;;;;7.03;3.03;;;10.00;99.90;;;;;;4200046;28;20396;-85
2023/05/31 00:33:04;;;;;;;4.97;2.22;;;9.80;99.90;;;;;;4199367;28;20451;-85
2023/05/31 00:35:05;;;;;;;4.65;2.20;;;9.70;99.90;;;;;;4199756;28;20051;-86
2023/05/31 00:37:06;;;;;;;5.22;2.55;;;9.70;99.90;;;;;;4182330;28;20092;-85
2023/05/31 00:39:07;;;;;;;9.35;3.08;;;9.60;99.90;;;;;;4198099;28;20086;-86
2023/05/31 00:41:09;;;;;;;9.13;2.28;;;9.60;99.90;;;;;;4182406;28;20139;-85
2023/05/31 00:43:10;;;;;;;5.32;2.47;;;9.60;99.90;;;;;;4196969;28;20049;-86
2023/05/31 00:45:11;;;;;;;5.97;2.55;;;9.50;99.90;;;;;;4198859;28;20044;-85
2023/05/31 00:47:12;;;;;;;5.82;2.28;;;9.60;99.90;;;;;;4198108;28;20048;-85
2023/05/31 00:49:14;;;;;;;4.72;2.13;;;9.50;99.90;;;;;;4199131;28;20559;-85
2023/05/31 00:51:14;;;;;;;6.43;2.75;;;9.50;99.90;;;;;;4216385;28;20407;-85
2023/05/31 00:53:18;;;;;;;5.85;2.58;;;9.70;99.90;;;;;;4197994;28;20139;-86
2023/05/31 00:55:21;;;;;;;6.70;2.30;;;9.40;99.90;;;;;;4182849;28;20056;-86
2023/05/31 00:57:23;;;;;;;10.00;3.38;;;9.40;99.90;;;;;;4216450;28;20051;-85
2023/05/31 00:59:24;;;;;;;5.68;2.80;;;9.40;99.90;;;;;;4199143;28;20033;-86
2023/05/31 01:01:33;;;;;;;6.68;3.08;;;9.60;99.90;;;;;;4198179;28;20057;-85
2023/05/31 01:03:34;;;;;;;6.95;2.47;;;9.40;99.90;;;;;;4198137;28;20048;-85
2023/05/31 01:05:37;;;;;;;8.18;3.13;;;9.30;99.90;;;;;;4198960;28;20059;-85
2023/05/31 01:07:38;;;;;;;7.70;2.75;;;9.30;99.90;;;;;;4182020;28;20400;-86
2023/05/31 01:09:42;;;;;;;7.53;2.72;;;9.30;99.90;;;;;;4198663;28;20144;-85
2023/05/31 01:12:10;;;;;;;4.75;2.22;;;9.30;99.90;;;;;;4198063;28;20063;-86
2023/05/31 01:14:57;;;;;;;5.82;2.90;;;9.20;99.90;;;;;;4197710;28;20050;-86
2023/05/31 01:17:13;;;;;;;6.38;2.97;;;9.20;99.90;;;;;;4182380;28;20136;-86
2023/05/31 01:19:29;;;;;;;9.15;2.80;;;9.20;99.90;;;;;;4181375;28;20048;-86
2023/05/31 01:21:58;;;;;;;6.68;2.88;;;9.20;99.90;;;;;;4181462;28;20049;-86
2023/05/31 01:24:06;;;;;;;7.53;2.80;;;9.20;99.90;;;;;;4181705;28;20119;-85
2023/05/31 01:26:28;;;;;;;6.63;2.50;;;9.10;99.90;;;;;;4166310;28;20168;-85
2023/05/31 01:28:34;;;;;;;7.70;2.90;;;9.00;99.90;;;;;;4183561;28;20123;-85
2023/05/31 01:30:37;;;;;;;6.78;3.03;;;9.00;99.90;;;;;;4182623;28;20090;-85
2023/05/31 01:32:38;;;;;;;6.57;3.05;;;9.00;99.90;;;;;;4182618;28;20049;-85
2023/05/31 01:34:42;;;;;;;6.28;2.63;;;9.00;99.90;;;;;;4182515;28;20044;-85
2023/05/31 01:36:44;;;;;;;7.07;3.00;;;9.00;99.90;;;;;;4166610;28;20059;-85
2023/05/31 01:38:55;;;;;;;7.38;2.67;;;9.10;99.90;;;;;;4165851;28;20077;-85
2023/05/31 01:40:59;;;;;;;5.55;2.50;;;9.00;99.90;;;;;;4182150;28;20190;-85
2023/05/31 01:43:00;;;;;;;7.22;2.75;;;9.10;99.90;;;;;;4198568;28;20119;-85
2023/05/31 01:45:03;;;;;;;4.72;2.58;;;9.00;99.90;;;;;;4180975;28;20102;-84
2023/05/31 01:47:04;;;;;;;4.75;2.78;;;9.00;99.90;;;;;;4183183;28;20047;-84
2023/05/31 01:49:12;;;;;;;8.82;3.00;;;9.00;99.90;;;;;;4194286;28;20133;-84
2023/05/31 01:51:14;;;;;;;6.50;2.63;;;9.00;99.90;;;;;;4181132;28;20548;-83
2023/05/31 01:53:15;;;;;;;4.68;2.13;;;9.00;99.90;;;;;;4181903;28;20123;-84
2023/05/31 01:55:17;;;;;;;4.70;2.13;;;8.90;99.90;;;;;;4181204;28;20045;-84
2023/05/31 01:57:19;;;;;;;5.75;2.55;;;9.10;99.90;;;;;;4182367;28;20068;-84
2023/05/31 01:59:21;;;;;;;5.70;2.35;;;8.90;99.90;;;;;;4181977;28;20124;-84
2023/05/31 02:01:22;;;;;;;4.35;2.33;;;8.90;99.90;;;;;;4183581;28;20227;-84
2023/05/31 02:03:25;;;;;;;7.75;2.22;;;8.80;99.90;;;;;;4181828;28;20049;-84
2023/05/31 02:05:26;;;;;;;5.15;2.50;;;8.80;99.90;;;;;;4180254;28;20060;-84
2023/05/31 02:07:26;;;;;;;4.55;2.15;;;9.10;99.90;;;;;;4182218;28;20044;-84
2023/05/31 02:09:27;;;;;;;7.07;2.60;;;8.80;99.90;;;;;;4182008;28;20116;-85
2023/05/31 02:11:29;;;;;;;3.95;2.22;;;9.20;99.90;;;;;;4183001;28;20033;-85
2023/05/31 02:13:30;;;;;;;5.43;2.25;;;8.70;99.90;;;;;;4182899;28;20044;-85
2023/05/31 02:15:31;;;;;;;6.72;2.40;;;9.10;99.90;;;;;;4183219;28;20120;-84
2023/05/31 02:17:32;;;;;;;5.07;2.22;;;8.70;99.90;;;;;;4180751;28;20432;-85
2023/05/31 02:19:33;;;;;;;4.63;2.28;;;8.70;99.90;;;;;;4180980;28;20077;-85
2023/05/31 02:21:35;;;;;;;5.47;2.40;;;8.70;99.90;;;;;;4181217;28;20182;-85
2023/05/31 02:23:36;;;;;;;5.75;2.13;;;8.70;99.90;;;;;;4182550;28;20095;-85
2023/05/31 02:25:38;;;;;;;5.88;2.53;;;8.80;99.90;;;;;;4182083;28;20033;-84
2023/05/31 02:27:40;;;;;;;6.93;3.13;;;8.60;99.90;;;;;;4181262;28;20053;-85
2023/05/31 02:29:41;;;;;;;8.57;2.58;;;8.70;99.90;;;;;;4183080;28;20068;-84
2023/05/31 02:31:45;;;;;;;5.40;2.95;;;9.20;99.90;;;;;;4181771;28;20124;-84
2023/05/31 02:33:47;;;;;;;6.88;2.60;;;9.20;99.90;;;;;;4181878;28;20061;-84
2023/05/31 02:35:49;;;;;;;6.63;2.63;;;8.70;99.90;;;;;;4181275;28;20045;-85
2023/05/31 02:37:50;;;;;;;4.82;2.58;;;8.60;99.90;;;;;;4164092;28;20417;-84
2023/05/31 02:39:54;;;;;;;4.68;2.53;;;8.60;99.90;;;;;;4182827;28;20076;-84
2023/05/31 02:41:55;;;;;;;5.40;2.55;;;9.40;99.90;;;;;;4180614;28;20088;-84
2023/05/31 02:43:56;;;;;;;6.68;2.70;;;8.70;99.90;;;;;;4181600;28;20049;-85
2023/05/31 02:45:57;;;;;;;7.43;2.80;;;8.60;99.90;;;;;;4180791;28;20049;-85
2023/05/31 02:48:01;;;;;;;8.75;3.35;;;9.20;99.90;;;;;;4182773;28;20045;-85
2023/05/31 02:50:07;;;;;;;4.15;2.13;;;8.60;99.90;;;;;;4182451;28;20098;-84
2023/05/31 02:52:10;;;;;;;8.27;3.45;;;8.50;99.90;;;;;;4180308;28;20045;-85
2023/05/31 02:54:12;;;;;;;6.53;2.75;;;8.50;99.90;;;;;;4181265;28;20060;-84
2023/05/31 02:56:12;;;;;;;7.65;3.83;;;8.50;99.90;;;;;;4180058;28;20108;-84
2023/05/31 02:58:14;;;;;;;5.30;2.88;;;8.50;99.90;;;;;;4181486;28;20067;-85
2023/05/31 03:00:17;;;;;;;7.40;2.63;;;8.70;99.90;;;;;;4180891;28;20045;-84
2023/05/31 03:02:18;;;;;;;4.65;2.22;;;8.50;99.90;;;;;;4180027;28;20045;-85
2023/05/31 03:04:18;;;;;;;5.28;2.05;;;8.70;99.90;;;;;;4164237;28;20049;-84
2023/05/31 03:06:19;;;;;;;6.90;2.75;;;8.40;99.90;;;;;;4180038;28;20493;-84
2023/05/31 03:08:20;;;;;;;6.28;2.28;;;8.60;99.90;;;;;;4183289;28;20492;-85
2023/05/31 03:10:21;;;;;;;4.35;2.10;;;8.40;99.90;;;;;;4196615;28;20056;-84
2023/05/31 03:12:22;;;;;;;6.95;2.53;;;8.40;99.90;;;;;;4197220;28;20431;-84
2023/05/31 03:14:22;;;;;;;4.53;2.40;;;8.40;99.90;;;;;;4197752;28;20488;-84
2023/05/31 03:16:24;;;;;;;4.25;2.42;;;8.50;99.90;;;;;;4197352;28;20040;-85
2023/05/31 03:18:25;;;;;;;7.93;2.15;;;8.30;99.90;;;;;;4202032;28;20063;-84
2023/05/31 03:20:26;;;;;;;4.93;2.03;;;8.30;99.90;;;;;;4199691;28;20044;-85
2023/05/31 03:22:29;;;;;;;7.70;2.55;;;8.30;99.90;;;;;;4200524;28;20060;-84
2023/05/31 03:24:31;;;;;;;3.75;2.10;;;8.70;99.90;;;;;;4199420;28;20079;-85
2023/05/31 03:26:33;;;;;;;5.28;2.60;;;8.30;99.90;;;;;;4183985;28;20501;-85
2023/05/31 03:28:34;;;;;;;7.07;3.05;;;8.30;99.90;;;;;;4183186;28;20068;-84
2023/05/31 03:30:35;;;;;;;5.95;2.40;;;8.30;99.90;;;;;;4167264;28;20402;-85
2023/05/31 03:32:36;;;;;;;7.57;2.28;;;8.30;99.90;;;;;;4167378;28;20111;-85
2023/05/31 03:34:37;;;;;;;6.53;2.65;;;8.30;99.90;;;;;;4184304;28;20044;-85
2023/05/31 03:36:38;;;;;;;7.85;2.40;;;8.30;99.90;;;;;;4184702;28;20033;-85
2023/05/31 03:38:39;;;;;;;7.95;3.40;;;8.30;99.90;;;;;;4184590;28;20619;-84
2023/05/31 03:40:39;;;;;;;4.95;2.85;;;8.50;99.90;;;;;;4185326;28;20057;-85
2023/05/31 03:42:40;;;;;;;8.25;3.25;;;8.30;99.90;;;;;;4183320;28;20463;-85
2023/05/31 03:44:41;;;;;;;7.93;2.92;;;8.30;99.90;;;;;;4168021;28;20045;-85
2023/05/31 03:46:42;;;;;;;7.72;3.22;;;8.50;99.90;;;;;;4184337;28;20044;-84
2023/05/31 03:48:46;;;;;;;7.28;3.10;;;8.70;99.90;;;;;;4200117;28;20513;-85
2023/05/31 03:50:47;;;;;;;5.40;2.90;;;8.30;99.90;;;;;;4185250;28;20052;-84
2023/05/31 03:52:47;;;;;;;9.35;3.17;;;8.80;99.90;;;;;;4167079;28;20053;-85
2023/05/31 03:54:48;;;;;;;9.23;2.95;;;8.30;99.90;;;;;;4184216;28;20096;-85
2023/05/31 03:56:49;;;;;;;6.38;2.65;;;8.00;99.90;;;;;;4183192;28;20117;-85
2023/05/31 03:58:50;;;;;;;7.38;3.13;;;8.60;99.90;;;;;;4167350;28;20470;-84
2023/05/31 04:00:57;;;;;;;6.35;2.97;;;8.40;99.90;;;;;;4184390;28;20051;-86
2023/05/31 04:02:59;;;;;;;6.88;3.42;;;8.40;99.90;;;;;;4184110;28;20044;-85
2023/05/31 04:05:00;;;;;;;6.10;3.03;;;8.50;99.90;;;;;;4183893;28;20489;-85
2023/05/31 04:07:01;;;;;;;12.45;4.18;;;8.40;99.90;;;;;;4182709;28;20049;-85
2023/05/31 04:09:05;;;;;;;10.32;4.05;;;8.40;99.90;;;;;;4184599;28;20072;-85
2023/05/31 04:11:09;;;;;;;9.20;3.30;;;8.40;99.90;;;;;;4184143;28;20041;-85
2023/05/31 04:13:11;;;;;;;12.05;3.42;;;8.70;99.90;;;;;;4166767;28;20080;-85
2023/05/31 04:15:11;;;;;;;18.52;4.97;;;8.50;99.90;;;;;;4184072;28;20045;-84
2023/05/31 04:17:13;;;;;;;10.77;3.58;;;8.70;99.90;;;;;;4166303;28;20489;-85
2023/05/31 04:19:13;;;;;;;25.73;5.22;;;8.60;99.90;;;;;;4184141;28;20037;-85
2023/05/31 04:21:14;;;;;;;9.38;3.85;;;9.00;99.90;;;;;;4166073;28;20560;-84
2023/05/31 04:23:16;;;;;;;10.95;4.25;;;9.60;99.90;;;;;;4198982;28;20056;-84
2023/05/31 04:25:18;;;;;;;10.63;4.18;;;8.80;99.90;;;;;;4165774;28;20104;-84
2023/05/31 04:27:19;;;;;;;9.63;3.53;;;8.00;99.90;;;;;;4166877;28;20052;-84
2023/05/31 04:29:25;;;;;;;9.68;3.60;;;8.90;99.90;;;;;;4182873;28;20142;-84
2023/05/31 04:31:28;;;;;;;9.57;4.28;;;8.90;99.90;;;;;;4200334;28;20484;-85
2023/05/31 04:33:29;;;;;;;14.93;4.43;;;8.90;99.90;;;;;;4183109;28;20032;-85
2023/05/31 04:35:30;;;;;;;18.15;5.22;;;9.00;99.90;;;;;;4182769;28;20045;-85
2023/05/31 04:37:31;;;;;;;10.32;4.70;;;9.10;99.90;;;;;;4201443;28;20072;-85
2023/05/31 04:39:32;;;;;;;12.60;4.25;;;9.10;99.90;;;;;;4182258;28;20551;-83
2023/05/31 04:41:33;;;;;;;11.80;4.15;;;9.10;99.90;;;;;;4200529;28;20056;-83
2023/05/31 04:43:34;;;;;;;14.52;4.28;;;9.30;99.90;;;;;;4211052;28;20032;-83
2023/05/31 04:45:36;;;;;;;11.30;4.03;;;9.60;99.90;;;;;;4182468;28;20583;-82
2023/05/31 04:47:37;;;;;;;9.75;3.85;;;9.30;99.90;;;;;;4191404;28;20045;-82
2023/05/31 04:49:38;;;;;;;12.35;4.03;;;9.30;99.90;;;;;;4199946;28;20116;-82
2023/05/31 04:51:39;;;;;;;10.90;3.83;;;9.40;99.90;;;;;;4183523;28;20073;-81
2023/05/31 04:53:40;;;;;;;9.95;4.18;;;9.40;99.90;;;;;;4181927;28;20052;-83
2023/05/31 04:55:41;;;;;;;12.75;4.32;;;9.50;99.90;;;;;;4200772;28;20044;-83
2023/05/31 04:57:41;;;;;;;9.65;3.92;;;9.80;99.90;;;;;;4200447;28;20396;-82
2023/05/31 04:59:42;;;;;;;18.23;4.38;;;9.60;99.90;;;;;;4182360;28;20049;-83
2023/05/31 05:01:44;;;;;;;10.77;4.18;;;9.70;99.90;;;;;;4182618;28;20398;-83
2023/05/31 05:03:45;;;;;;;9.30;3.15;;;9.80;99.90;;;;;;4182353;28;20084;-82
2023/05/31 05:05:47;;;;;;;7.35;3.50;;;9.80;99.90;;;;;;4183609;28;20048;-83
2023/05/31 05:07:48;;;;;;;10.95;4.18;;;9.90;99.90;;;;;;4199335;28;20044;-83
2023/05/31 05:09:49;;;;;;;12.93;3.83;;;10.70;99.90;;;;;;4199844;28;20044;-84
2023/05/31 05:11:50;;;;;;;10.43;3.72;;;10.10;99.90;;;;;;4177651;28;20080;-83
2023/05/31 05:13:51;;;;;;;13.88;4.35;;;10.30;99.90;;;;;;4216248;28;20040;-84
2023/05/31 05:15:52;;;;;;;13.20;4.00;;;10.20;99.90;;;;;;4215517;28;20051;-83
2023/05/31 05:17:55;;;;;;;14.38;3.97;;;10.30;99.90;;;;;;4215180;28;20040;-83
2023/05/31 05:19:56;;;;;;;13.13;5.20;;;10.50;99.90;;;;;;4216677;28;20028;-83
2023/05/31 05:21:57;;;;;;;10.98;4.72;;;10.60;99.90;;;;;;4216257;28;20373;-83
2023/05/31 05:23:57;;;;;;;17.02;5.80;;;11.00;99.90;;;;;;4182470;28;20599;-83
2023/05/31 05:25:59;;;;;;;23.00;5.72;;;10.80;99.90;;;;;;4197937;28;20068;-83
2023/05/31 05:28:00;;;;;;;23.63;6.85;;;10.90;99.90;;;;;;4198687;28;20088;-83
2023/05/31 05:30:01;;;;;;;16.77;4.82;;;11.00;99.90;;;;;;4198800;28;20492;-83
2023/05/31 05:32:01;;;;;;;21.30;6.22;;;11.20;99.90;;;;;;4216478;28;20114;-83
2023/05/31 05:34:02;;;;;;;17.30;6.70;;;11.30;99.90;;;;;;4194818;28;20068;-84
2023/05/31 05:36:03;;;;;;;18.50;6.82;;;11.40;99.90;;;;;;4181389;28;20048;-84
2023/05/31 05:38:04;;;;;;;16.27;5.82;;;11.50;99.90;;;;;;4165204;28;20044;-83
2023/05/31 05:40:07;;;;;;;17.58;5.90;;;11.70;99.90;;;;;;4199151;28;20044;-84
2023/05/31 05:42:08;;;;;;;17.38;5.80;;;11.70;99.90;;;;;;4215520;28;20047;-84
2023/05/31 05:44:10;;;;;;;12.48;4.32;;;11.90;99.90;;;;;;4204149;28;20046;-83
2023/05/31 05:46:10;;;;;;;21.52;5.15;;;12.00;99.90;;;;;;4197809;28;20107;-84
2023/05/31 05:48:11;;;;;;;13.50;5.13;;;12.10;99.90;;;;;;4198099;28;20044;-83
2023/05/31 05:50:12;;;;;;;15.90;4.00;;;12.20;99.90;;;;;;4198786;28;20044;-84
2023/05/31 05:52:14;;;;;;;16.58;5.20;;;12.30;99.90;;;;;;4181311;28;20045;-83
2023/05/31 05:54:15;;;;;;;11.27;4.72;;;12.40;99.90;;;;;;4180417;28;20133;-84
2023/05/31 05:56:18;;;;;;;17.33;5.35;;;12.50;99.90;;;;;;4182443;28;20404;-84
2023/05/31 05:58:21;;;;;;;20.17;4.28;;;12.60;99.90;;;;;;4180746;28;20136;-83
2023/05/31 06:00:23;;;;;;;17.02;4.30;;;12.70;99.90;;;;;;4198715;28;20040;-84
2023/05/31 06:02:25;;;;;;;18.92;6.45;;;12.70;99.90;;;;;;4199374;28;20048;-83
2023/05/31 06:04:26;;;;;;;15.25;4.72;;;12.80;99.90;;;;;;4181290;28;20052;-84
2023/05/31 06:06:27;;;;;;;14.00;4.13;;;12.90;99.90;;;;;;4181231;28;20072;-84
2023/05/31 06:08:27;;;;;;;11.07;3.42;;;13.00;99.90;;;;;;4180334;28;20049;-84
2023/05/31 06:10:28;;;;;;;25.60;4.35;;;13.00;99.90;;;;;;4197277;28;20049;-84
2023/05/31 06:12:32;;;;;;;15.30;4.13;;;13.20;99.90;;;;;;4198436;28;20493;-84
2023/05/31 06:14:33;;;;;;;11.93;3.92;;;13.30;99.90;;;;;;4198414;28;20051;-84
2023/05/31 06:16:34;;;;;;;11.65;3.83;;;13.30;99.90;;;;;;4199023;28;20124;-84
2023/05/31 06:18:34;;;;;;;13.25;3.80;;;13.40;99.90;;;;;;4198130;28;20465;-84
2023/05/31 06:20:35;;;;;;;13.30;4.03;;;13.50;99.90;;;;;;4181614;28;20053;-84
2023/05/31 06:22:37;;;;;;;12.40;4.10;;;13.60;99.90;;;;;;4198581;28;20080;-84
2023/05/31 06:24:37;;;;;;;10.48;3.55;;;13.70;99.90;;;;;;4199177;28;20473;-83
2023/05/31 06:26:38;;;;;;;13.02;3.13;;;13.80;99.90;;;;;;4198204;28;20041;-83
2023/05/31 06:28:39;;;;;;;11.60;3.53;;;13.90;99.90;;;;;;4180964;28;20052;-84
2023/05/31 06:30:41;;;;;;;9.88;2.80;;;14.00;99.90;;;;;;4212580;28;20036;-84
2023/05/31 06:32:42;;;;;;;10.68;2.53;;;14.10;99.90;;;;;;4188997;28;20516;-84
2023/05/31 06:34:43;;;;;;;8.85;2.50;;;14.20;99.90;;;;;;4214851;28;20042;-83
2023/05/31 06:36:44;;;;;;;15.05;3.03;;;14.30;99.90;;;;;;4207469;28;20051;-83
2023/05/31 06:38:46;;;;;;;13.88;3.35;;;14.40;99.90;;;;;;4215292;28;20043;-84
2023/05/31 06:40:47;;;;;;;7.90;2.88;;;14.50;99.90;;;;;;4214247;28;20036;-84
2023/05/31 06:42:48;;;;;;;8.65;2.13;;;14.50;99.90;;;;;;4197005;28;20052;-84
2023/05/31 06:44:48;;;;;;;11.88;2.55;;;14.60;99.90;;;;;;4197774;28;20507;-83
2023/05/31 06:46:49;;;;;;;7.85;2.83;;;14.70;99.90;;;;;;4214751;28;20419;-84
2023/05/31 06:48:51;;;;;;;11.95;2.65;;;14.80;99.90;;;;;;4190919;28;20055;-84
2023/05/31 06:50:51;;;;;;;29.40;4.85;;;14.90;99.90;;;;;;4214410;28;20040;-84
2023/05/31 06:52:52;;;;;;;10.70;2.90;;;15.00;99.90;;;;;;4200128;28;20555;-84
2023/05/31 06:54:53;;;;;;;8.52;2.65;;;15.10;99.90;;;;;;4217914;28;20040;-85
2023/05/31 06:56:54;;;;;;;6.80;2.70;;;15.20;99.90;;;;;;4219676;28;20062;-85
2023/05/31 06:58:55;;;;;;;10.18;2.38;;;15.30;99.90;;;;;;4183933;28;20140;-85
2023/05/31 07:00:56;;;;;;;13.63;3.20;;;15.40;99.90;;;;;;4220269;28;20411;-84
2023/05/31 07:02:56;;;;;;;11.98;2.72;;;15.50;99.90;;;;;;4219100;28;20043;-84
2023/05/31 07:04:59;;;;;;;9.38;4.18;;;15.60;99.90;;;;;;4217341;28;20044;-86
2023/05/31 07:07:02;;;;;;;10.82;2.17;;;15.70;99.90;;;;;;4218792;28;20119;-84
2023/05/31 07:09:03;;;;;;;6.20;2.42;;;15.80;99.90;;;;;;4217644;28;20094;-84
2023/05/31 07:11:06;;;;;;;8.20;2.35;;;15.80;99.90;;;;;;4214414;28;20482;-84
2023/05/31 07:13:07;;;;;;;6.43;2.50;;;15.90;99.90;;;;;;4205873;28;20037;-84
2023/05/31 07:15:09;;;;;;;5.10;1.63;;;16.00;99.90;;;;;;4200693;28;20137;-84
2023/05/31 07:17:10;;;;;;;5.20;1.65;;;;;;;;;;4206516;28;20043;-84
2023/05/31 07:19:12;;;;;;;5.35;1.67;;;16.10;99.90;;;;;;4196146;28;20304;-83
2023/05/31 07:21:13;;;;;;;8.05;1.80;;;;;;;;;;4218036;28;20043;-84
2023/05/31 07:23:14;;;;;;;2.53;1.15;;;;;;;;;;4217920;28;20055;-86
2023/05/31 07:25:15;;;;;;;2.67;1.00;;;16.30;99.90;;;;;;4183840;28;20072;-86
2023/05/31 07:27:16;;;;;;;2.75;1.13;;;16.50;99.90;;;;;;4218172;28;20036;-86
2023/05/31 07:29:17;;;;;;;3.38;0.90;;;16.60;99.90;;;;;;4202098;28;20102;-87
2023/05/31 07:31:18;;;;;;;2.72;1.33;;;16.60;99.90;;;;;;4183501;28;20080;-87
2023/05/31 07:33:20;;;;;;;2.20;0.93;;;;;;;;;;4219098;28;20132;-87
2023/05/31 07:35:21;;;;;;;7.72;1.20;;;16.70;99.90;;;;;;4218002;28;20050;-86
2023/05/31 07:37:22;;;;;;;7.88;1.00;;;17.00;99.90;;;;;;4219752;28;20123;-87
2023/05/31 07:39:23;;;;;;;5.78;1.40;;;17.10;99.90;;;;;;4197725;28;20176;-87
2023/05/31 07:41:25;;;;;;;3.90;0.93;;;17.20;99.90;;;;;;4215107;28;20469;-87
2023/05/31 07:43:26;;;;;;;4.35;1.08;;;17.30;99.90;;;;;;4214202;28;20101;-86
2023/05/31 07:45:28;;;;;;;2.60;1.00;;;17.50;99.90;;;;;;4182760;28;20049;-86
2023/05/31 07:47:29;;;;;;;8.07;1.40;;;17.60;99.90;;;;;;4218161;28;20097;-87
2023/05/31 07:49:31;;;;;;;3.60;0.90;;;17.60;99.90;;;;;;4223338;28;20040;-87
2023/05/31 07:51:32;;;;;;;4.53;0.95;;;17.70;99.90;;;;;;4203193;28;20070;-87
2023/05/31 07:53:32;;;;;;;6.65;1.27;;;17.80;99.90;;;;;;4221629;28;20040;-85
2023/05/31 07:55:35;;;;;;;5.00;1.10;;;17.80;99.90;;;;;;4199392;28;20040;-84
2023/05/31 07:57:35;;;;;;;3.38;1.13;;;17.90;99.90;;;;;;4222067;28;20040;-85
2023/05/31 07:59:36;;;;;;;4.30;1.80;;;18.00;99.90;;;;;;4225297;28;20111;-84
2023/05/31 08:01:38;;;;;;;5.03;1.52;;;18.20;99.90;;;;;;4224565;28;20444;-87
2023/05/31 08:03:41;;;;;;;8.63;1.48;;;18.30;99.90;;;;;;4206902;28;20044;-85
2023/05/31 08:05:42;;;;;;;6.03;1.70;;;18.50;99.90;;;;;;4223940;28;20100;-86
2023/05/31 08:07:44;;;;;;;6.47;2.20;;;18.60;99.90;;;;;;4226935;28;20031;-85
2023/05/31 08:09:47;;;;;;;6.45;1.42;;;18.70;99.90;;;;;;4225800;28;20044;-85
2023/05/31 08:11:48;;;;;;;6.82;1.30;;;18.80;99.90;;;;;;4225548;28;20040;-85
2023/05/31 08:13:49;;;;;;;3.33;1.40;;;18.90;99.90;;;;;;4221894;28;20501;-84
2023/05/31 08:15:50;;;;;;;7.30;1.77;;;19.10;99.90;;;;;;4212836;28;20047;-85
2023/05/31 08:17:51;;;;;;;6.70;1.42;;;19.20;99.90;;;;;;4191061;28;20059;-85
2023/05/31 08:19:52;;;;;;;7.60;2.22;;;19.40;99.90;;;;;;4207956;28;20119;-85
2023/05/31 08:21:52;;;;;;;6.50;1.50;;;19.50;99.90;;;;;;4191097;28;20428;-84
2023/05/31 08:23:53;;;;;;;4.72;1.17;;;19.60;99.90;;;;;;4192164;28;20051;-84
2023/05/31 08:25:54;;;;;;;4.82;1.45;;;19.70;99.90;;;;;;4199481;28;20040;-84
2023/05/31 08:27:55;;;;;;;5.88;1.45;;;19.90;99.90;;;;;;4188959;28;20227;-85
2023/05/31 08:29:56;;;;;;;4.30;1.33;;;20.10;99.90;;;;;;4197448;28;20123;-86
2023/05/31 08:31:58;;;;;;;5.80;1.30;;;20.20;99.90;;;;;;4191765;28;20044;-85
2023/05/31 08:33:59;;;;;;;8.48;1.35;;;20.40;99.90;;;;;;4199404;28;20040;-85
2023/05/31 08:36:01;;;;;;;4.68;1.25;;;20.60;99.90;;;;;;4199923;28;20396;-86
2023/05/31 08:38:01;;;;;;;9.68;1.60;;;20.70;99.90;;;;;;4199676;28;20029;-85
2023/05/31 08:40:05;;;;;;;6.28;1.33;;;20.80;99.90;;;;;;4199685;28;20040;-85
2023/05/31 08:42:14;;;;;;;9.52;2.08;;;20.90;99.90;;;;;;4199539;28;20094;-85
2023/05/31 08:44:15;;;;;;;6.32;1.38;;;21.10;99.90;;;;;;4197038;28;20115;-86
2023/05/31 08:46:16;;;;;;;6.68;1.65;;;21.20;99.90;;;;;;4193465;28;20076;-84
2023/05/31 08:48:39;;;;;;;6.50;1.50;;;21.20;99.90;;;;;;4199708;28;20451;-85
2023/05/31 08:50:42;;;;;;;7.95;2.00;;;21.10;99.90;;;;;;4199912;28;20044;-86
2023/05/31 08:52:45;;;;;;;6.53;2.05;;;21.10;99.90;;;;;;4193437;28;20102;-86
2023/05/31 08:54:47;;;;;;;6.85;1.80;;;21.10;99.90;;;;;;4188834;28;20076;-85
2023/05/31 08:56:48;;;;;;;8.48;2.38;;;21.10;99.90;;;;;;4186260;28;20056;-84
2023/05/31 08:58:51;;;;;;;6.82;1.90;;;21.20;99.90;;;;;;4190011;28;20048;-85
2023/05/31 09:00:52;;;;;;;10.45;2.05;;;21.10;99.90;;;;;;4186234;28;20052;-85
2023/05/31 09:02:53;;;;;;;8.10;2.55;;;20.90;99.90;;;;;;4198872;28;20503;-85
2023/05/31 09:04:55;;;;;;;7.70;1.90;;;20.90;99.90;;;;;;4199001;28;20040;-85
2023/05/31 09:06:56;;;;;;;9.27;2.22;;;20.80;99.90;;;;;;4199852;28;20047;-86
2023/05/31 09:08:57;;;;;;;7.15;2.35;;;20.90;99.90;;;;;;4199791;28;20135;-85
2023/05/31 09:11:00;;;;;;;6.68;1.85;;;21.30;99.90;;;;;;4199561;28;20044;-86
2023/05/31 09:13:02;;;;;;;6.68;1.90;;;21.60;99.90;;;;;;4199010;28;20086;-84
2023/05/31 09:15:05;;;;;;;15.13;3.08;;;22.00;99.90;;;;;;4198984;28;20048;-86
2023/05/31 09:17:06;;;;;;;11.88;2.55;;;22.10;99.90;;;;;;4183463;28;20044;-85
2023/05/31 09:19:07;;;;;;;10.52;2.10;;;21.90;99.90;;;;;;4182814;28;20036;-85
2023/05/31 09:21:12;;;;;;;10.55;3.55;;;21.70;99.90;;;;;;4182876;28;20489;-85
2023/05/31 09:23:14;;;;;;;9.07;2.38;;;21.70;99.90;;;;;;4196584;28;20048;-85
2023/05/31 09:25:15;;;;;;;6.25;2.20;;;21.70;99.90;;;;;;4181230;28;20045;-85
2023/05/31 09:27:15;;;;;;;8.40;2.13;;;21.60;99.90;;;;;;4198951;28;20054;-85
2023/05/31 09:29:17;;;;;;;6.55;2.78;;;21.60;99.90;;;;;;4199950;28;20702;-84
2023/05/31 09:31:19;;;;;;;10.15;2.30;;;21.60;99.90;;;;;;4190854;28;20503;-84
2023/05/31 09:33:19;;;;;;;6.30;2.10;;;21.60;99.90;;;;;;4189965;28;20072;-84
2023/05/31 09:35:24;;;;;;;5.53;2.53;;;21.60;99.90;;;;;;4197690;28;20112;-83
2023/05/31 09:37:25;;;;;;;10.15;2.63;;;21.60;99.90;;;;;;4207934;28;20051;-83
2023/05/31 09:39:26;;;;;;;10.00;2.85;;;21.40;99.90;;;;;;4215594;28;20068;-84
2023/05/31 09:41:27;;;;;;;6.10;2.03;;;21.30;99.90;;;;;;4214562;28;20093;-83
2023/05/31 09:43:28;;;;;;;11.30;3.15;;;21.20;99.90;;;;;;4215477;28;20112;-83
2023/05/31 09:45:29;;;;;;;7.72;2.35;;;21.20;99.90;;;;;;4215457;28;20123;-84
2023/05/31 09:47:29;;;;;;;7.82;2.72;;;21.30;99.90;;;;;;4215143;28;20047;-84
2023/05/31 09:49:30;;;;;;;8.95;2.40;;;21.40;99.90;;;;;;4215761;28;20073;-83
2023/05/31 09:51:32;;;;;;;10.75;2.75;;;21.60;99.90;;;;;;4211155;28;20544;-84
2023/05/31 09:53:40;;;;;;;8.55;2.63;;;22.00;99.90;;;;;;4202819;28;20084;-84
2023/05/31 09:55:41;;;;;;;6.57;2.83;;;22.30;99.90;;;;;;4207604;28;20045;-84
2023/05/31 09:57:43;;;;;;;6.35;2.72;;;22.40;99.90;;;;;;4214861;28;20396;-84
2023/05/31 09:59:44;;;;;;;9.75;2.30;;;22.50;99.90;;;;;;4191711;28;20087;-84
2023/05/31 10:01:46;;;;;;;9.40;3.05;;;22.80;99.90;;;;;;4196320;28;20079;-84
2023/05/31 10:03:48;;;;;;;6.32;2.92;;;22.80;99.90;;;;;;4215900;28;20055;-83
2023/05/31 10:05:49;;;;;;;8.00;2.70;;;22.80;99.90;;;;;;4215773;28;20432;-84
2023/05/31 10:07:52;;;;;;;7.60;2.95;;;22.90;99.90;;;;;;4216089;28;20105;-83
2023/05/31 10:09:53;;;;;;;6.00;2.63;;;23.00;99.90;;;;;;4215072;28;20048;-84
2023/05/31 10:11:56;;;;;;;10.13;3.22;;;23.30;99.90;;;;;;4213548;28;20078;-84
2023/05/31 10:14:01;;;;;;;9.52;2.60;;;23.50;99.90;;;;;;4211285;28;20123;-84
2023/05/31 10:16:07;;;;;;;10.88;3.00;;;23.50;99.90;;;;;;4198561;28;20051;-84
2023/05/31 10:18:11;;;;;;;9.32;2.83;;;23.70;99.90;;;;;;4207567;28;20040;-84
2023/05/31 10:20:19;;;;;;;4.88;2.30;;;23.70;99.90;;;;;;4206307;28;20075;-84
2023/05/31 10:22:21;;;;;;;5.15;2.78;;;23.70;99.90;;;;;;4209324;28;20519;-84
2023/05/31 10:24:36;;;;;;;7.47;2.85;;;23.80;99.90;;;;;;4207696;28;20480;-84
2023/05/31 10:26:56;;;;;;;9.98;3.03;;;;;;;;;;4196338;28;20052;-84
2023/05/31 10:29:09;;;;;;;5.78;2.20;;;23.90;99.90;;;;;;4197119;28;20045;-84
2023/05/31 10:31:11;;;;;;;5.65;2.53;;;24.30;99.90;;;;;;4204187;28;20512;-84
2023/05/31 10:33:15;;;;;;;7.18;3.58;;;;;;;;;;4197246;28;20053;-84
2023/05/31 10:35:16;;;;;;;7.07;2.60;;;;;;;;;;4198566;28;20051;-84
2023/05/31 10:37:18;;;;;;;7.43;2.63;;;;;;;;;;4215664;28;20048;-84
2023/05/31 10:39:26;;;;;;;9.95;2.53;;;;;;;;;;4217278;28;20040;-84
2023/05/31 10:41:30;;;;;;;8.80;4.10;;;;;;;;;;4215602;28;20560;-84